Terminal Aerodrome Forecast
Issued by NWS

Home | Current Version | Previous Version | Text Only | Print | Product List | Glossary On
Versions: 1 2 3 4 5 6 7 8 9 10 11
000
FTUS44 KCRP 280500
TAFLRD
TAF
KLRD 280540Z 2806/2906 08012KT P6SM SCT080
     FM281000 07008KT P6SM SCT018
      TEMPO 2811/2815 BKN018
     FM281600 06010KT P6SM SCT050 SCT150
     FM290100 12010KT P6SM SCT100=

USA.gov is the U.S. government's official web portal to all federal, state and local government web resources and services.